Terminal Aerodrome Forecast
Issued by NWS Twin Cities, MN

Home | Current Version | Previous Version | Graphics & Text | Print | Product List | Glossary On
Versions: 1 2 3 4 5 6 7 8 9 10 11 12 13 14 15 16 17 18 19 20 21 22 23 24 25 26 27
000
FTUS43 KMPX 190200 AAA
TAFMSP
TAF AMD
KMSP 190241Z 1903/2006 24005KT P6SM SCT060
     FM190900 28004KT 6SM BR SCT025
     FM191200 30007KT P6SM FEW025 SCT200
     FM191900 31009KT P6SM SCT200=

USA.gov is the U.S. government's official web portal to all federal, state and local government web resources and services.